createdAt,value
2019-02-28T00:00:15.996Z,24.50
2019-02-28T00:02:44.278Z,23.47
2019-02-28T00:05:12.533Z,20.47
2019-02-28T00:07:40.795Z,19.83
2019-02-28T00:10:09.051Z,20.93
2019-02-28T00:12:37.300Z,19.10
2019-02-28T00:15:09.573Z,18.60
2019-02-28T00:17:42.567Z,20.20
2019-02-28T00:20:09.005Z,20.27
2019-02-28T00:22:37.265Z,20.93
2019-02-28T00:25:07.610Z,19.87
2019-02-28T00:27:35.859Z,21.17
2019-02-28T00:30:06.916Z,20.60
2019-02-28T00:32:35.187Z,21.43
2019-02-28T00:35:04.044Z,21.43
2019-02-28T00:37:32.314Z,25.23
2019-02-28T00:40:00.569Z,22.37
2019-02-28T00:42:28.840Z,23.60
2019-02-28T00:44:57.110Z,25.17
2019-02-28T00:47:25.369Z,25.00
2019-02-28T00:49:55.582Z,23.20
2019-02-28T00:52:23.631Z,22.67
2019-02-28T00:54:51.890Z,24.17
2019-02-28T00:57:20.153Z,23.60
2019-02-28T00:59:48.418Z,22.27
2019-02-28T01:02:17.570Z,22.63
2019-02-28T01:04:46.792Z,21.73
2019-02-28T01:07:16.335Z,24.57
2019-02-28T01:09:45.198Z,23.63
2019-02-28T01:12:18.744Z,23.83
2019-02-28T01:14:43.442Z,22.07
2019-02-28T01:17:11.714Z,21.47
2019-02-28T01:19:41.253Z,22.40
2019-02-28T01:22:09.995Z,22.80
2019-02-28T01:24:38.251Z,22.77
2019-02-28T01:27:06.545Z,21.40
2019-02-28T01:29:35.699Z,20.30
2019-02-28T01:32:04.646Z,20.43
2019-02-28T01:34:33.070Z,20.47
2019-02-28T01:37:01.373Z,19.47
2019-02-28T01:39:30.700Z,20.90
2019-02-28T01:41:59.078Z,21.27
2019-02-28T01:44:27.342Z,22.03
2019-02-28T01:46:55.612Z,20.63
2019-02-28T01:49:25.943Z,22.23
2019-02-28T01:51:53.879Z,20.90
2019-02-28T01:54:22.151Z,22.40
2019-02-28T01:56:50.507Z,20.33
2019-02-28T01:59:21.603Z,20.60
2019-02-28T02:01:48.746Z,22.03
2019-02-28T02:04:17.033Z,20.90
2019-02-28T02:06:45.298Z,19.80
2019-02-28T02:09:13.559Z,20.03
2019-02-28T02:11:41.843Z,22.07
2019-02-28T02:14:10.969Z,19.77
2019-02-28T02:16:40.068Z,20.20
2019-02-28T02:19:08.343Z,19.63
2019-02-28T02:21:36.590Z,19.80
2019-02-28T02:24:04.884Z,19.90
2019-02-28T02:26:33.156Z,20.40
2019-02-28T02:29:01.921Z,19.67
2019-02-28T02:31:30.253Z,19.57
2019-02-28T02:33:58.510Z,20.37
2019-02-28T02:36:26.777Z,20.23
2019-02-28T02:38:55.030Z,19.23
2019-02-28T02:41:23.316Z,19.97
2019-02-28T02:43:55.031Z,19.67
2019-02-28T02:46:21.576Z,20.77
2019-02-28T02:48:49.838Z,18.83
2019-02-28T02:51:18.096Z,19.23
2019-02-28T02:53:46.356Z,19.37
2019-02-28T02:56:14.616Z,19.87
2019-02-28T02:58:42.884Z,20.93
2019-02-28T03:01:11.145Z,21.00
2019-02-28T03:03:42.704Z,19.03
2019-02-28T03:06:13.838Z,20.63
2019-02-28T03:08:39.386Z,21.00
2019-02-28T03:11:07.673Z,20.63
2019-02-28T03:13:42.176Z,20.03
2019-02-28T03:16:05.911Z,19.53
2019-02-28T03:18:34.180Z,18.80
2019-02-28T03:21:02.442Z,17.27
2019-02-28T03:23:38.139Z,18.80
2019-02-28T03:26:05.754Z,18.60
2019-02-28T03:28:31.954Z,18.57
2019-02-28T03:31:11.726Z,17.67
2019-02-28T03:33:30.665Z,17.93
2019-02-28T03:35:58.941Z,19.47
2019-02-28T03:38:27.198Z,18.50
2019-02-28T03:40:55.467Z,19.10
2019-02-28T03:43:23.732Z,18.27
2019-02-28T03:45:51.989Z,18.77
2019-02-28T03:48:20.260Z,17.80
2019-02-28T03:50:48.517Z,22.60
2019-02-28T03:53:19.996Z,23.33
2019-02-28T03:55:46.793Z,24.57
2019-02-28T03:58:15.052Z,21.83
2019-02-28T04:00:43.338Z,16.53
2019-02-28T04:03:11.590Z,16.87
2019-02-28T04:05:39.848Z,17.33
2019-02-28T04:08:08.142Z,17.47
2019-02-28T04:10:36.395Z,18.07
2019-02-28T04:13:04.649Z,17.63
2019-02-28T04:15:32.917Z,17.70
2019-02-28T04:18:07.087Z,17.67
2019-02-28T04:20:35.922Z,18.20
2019-02-28T04:23:01.371Z,18.70
2019-02-28T04:25:29.609Z,19.17
2019-02-28T04:27:57.884Z,18.30
2019-02-28T04:30:26.203Z,18.57
2019-02-28T04:32:54.461Z,20.93
2019-02-28T04:35:25.287Z,19.27
2019-02-28T04:37:52.748Z,20.00
2019-02-28T04:40:21.074Z,21.60
2019-02-28T04:42:49.337Z,20.47
2019-02-28T04:45:17.588Z,19.57
2019-02-28T04:47:45.859Z,20.77
2019-02-28T04:50:14.180Z,21.20
2019-02-28T04:52:47.952Z,22.60
2019-02-28T04:55:37.214Z,22.90
2019-02-28T04:58:04.499Z,24.83
2019-02-28T05:00:32.780Z,23.43
2019-02-28T05:03:01.071Z,24.53
2019-02-28T05:05:29.331Z,24.47
2019-02-28T05:07:57.834Z,23.00
2019-02-28T05:10:26.217Z,26.73
2019-02-28T05:12:54.473Z,29.80
2019-02-28T05:15:22.743Z,29.17
2019-02-28T05:17:53.139Z,27.87
2019-02-28T05:20:21.223Z,27.07
2019-02-28T05:22:49.749Z,28.10
2019-02-28T05:25:18.832Z,24.37
2019-02-28T05:27:48.907Z,20.57
2019-02-28T05:30:19.621Z,21.07
2019-02-28T05:32:47.938Z,20.07
2019-02-28T05:35:16.210Z,20.23
2019-02-28T05:37:48.238Z,19.63
2019-02-28T05:40:17.642Z,21.53
2019-02-28T05:42:46.145Z,20.30
2019-02-28T05:45:15.763Z,20.10
2019-02-28T05:47:46.849Z,21.13
2019-02-28T05:50:17.282Z,22.17
2019-02-28T05:52:45.838Z,23.70
2019-02-28T05:55:14.130Z,23.87
2019-02-28T05:57:48.114Z,22.37
2019-02-28T06:00:20.864Z,23.07
2019-02-28T06:02:49.160Z,23.70
2019-02-28T06:05:20.112Z,22.47
2019-02-28T06:07:48.370Z,23.50
2019-02-28T06:10:16.642Z,23.73
2019-02-28T06:12:45.168Z,25.03
2019-02-28T06:15:14.833Z,24.60
2019-02-28T06:17:43.113Z,24.57
2019-02-28T06:20:16.476Z,24.77
2019-02-28T06:22:42.464Z,28.33
2019-02-28T06:25:11.606Z,38.17
2019-02-28T06:27:41.811Z,39.77
2019-02-28T06:30:14.433Z,38.23
2019-02-28T06:32:42.705Z,37.73
2019-02-28T06:35:16.126Z,33.67
2019-02-28T06:37:41.025Z,31.43
2019-02-28T06:40:15.689Z,30.03
2019-02-28T06:42:46.637Z,27.70
2019-02-28T06:45:18.037Z,27.83
2019-02-28T06:47:49.622Z,31.63
2019-02-28T06:50:16.571Z,25.07
2019-02-28T06:52:44.809Z,29.07
2019-02-28T06:55:14.892Z,28.40
2019-02-28T06:57:43.249Z,29.60
2019-02-28T07:00:16.099Z,27.60
2019-02-28T07:02:44.435Z,25.43
2019-02-28T07:05:12.693Z,26.37
2019-02-28T07:07:40.975Z,24.93
2019-02-28T07:10:12.737Z,25.23
2019-02-28T07:12:41.570Z,25.37
2019-02-28T07:15:10.407Z,24.93
2019-02-28T07:17:38.715Z,26.33
2019-02-28T07:20:13.191Z,23.70
2019-02-28T07:22:41.446Z,24.60
2019-02-28T07:25:12.770Z,22.30
2019-02-28T07:27:40.696Z,25.40
2019-02-28T07:30:18.774Z,23.80
2019-02-28T07:32:46.856Z,25.10
2019-02-28T07:35:15.178Z,23.60
2019-02-28T07:37:43.467Z,23.53
2019-02-28T07:40:16.258Z,25.23
2019-02-28T07:42:43.869Z,23.60
2019-02-28T07:45:13.368Z,25.67
2019-02-28T07:47:41.758Z,25.70
2019-02-28T07:50:13.275Z,26.30
2019-02-28T07:52:41.546Z,28.93
2019-02-28T07:55:14.125Z,27.13
2019-02-28T07:57:42.370Z,26.47
2019-02-28T08:00:22.531Z,27.57
2019-02-28T08:02:50.818Z,25.80
2019-02-28T08:05:19.114Z,25.97
2019-02-28T08:07:51.993Z,26.50
2019-02-28T08:10:28.368Z,30.33
2019-02-28T08:12:56.682Z,32.37
2019-02-28T08:15:26.090Z,26.53
2019-02-28T08:17:54.476Z,28.10
2019-02-28T08:20:22.743Z,33.67
2019-02-28T08:22:51.070Z,26.73
2019-02-28T08:25:20.582Z,26.57
2019-02-28T08:27:48.940Z,28.53
2019-02-28T08:30:20.671Z,25.37
2019-02-28T08:32:49.151Z,27.93
2019-02-28T08:35:17.488Z,24.97
2019-02-28T08:37:45.781Z,23.93
2019-02-28T08:40:19.911Z,23.57
2019-02-28T08:42:49.905Z,23.10
2019-02-28T08:45:18.273Z,23.60
2019-02-28T08:47:46.581Z,22.80
2019-02-28T08:50:23.997Z,23.57
2019-02-28T08:52:53.830Z,22.43
2019-02-28T08:55:28.752Z,20.83
2019-02-28T08:57:55.887Z,23.13
2019-02-28T09:00:23.223Z,19.60
2019-02-28T09:02:52.899Z,19.30
2019-02-28T09:05:25.660Z,19.83
2019-02-28T09:07:52.030Z,18.23
2019-02-28T09:10:21.461Z,18.77
2019-02-28T09:12:49.733Z,19.63
2019-02-28T09:15:20.974Z,19.60
2019-02-28T09:17:49.811Z,19.53
2019-02-28T09:20:18.105Z,19.73
2019-02-28T09:22:46.452Z,17.43
2019-02-28T09:25:22.080Z,18.73
2019-02-28T09:27:49.988Z,18.87
2019-02-28T09:30:29.768Z,17.37
2019-02-28T09:32:57.784Z,17.77
2019-02-28T09:35:26.085Z,17.37
2019-02-28T09:37:54.351Z,17.30
2019-02-28T09:40:25.921Z,16.23
2019-02-28T09:42:52.639Z,16.67
2019-02-28T09:45:22.435Z,17.10
2019-02-28T09:47:50.705Z,17.13
2019-02-28T09:50:22.578Z,17.07
2019-02-28T09:52:51.142Z,16.97
2019-02-28T09:55:19.415Z,16.13
2019-02-28T09:57:53.713Z,15.73
2019-02-28T10:00:28.590Z,17.00
2019-02-28T10:02:56.852Z,16.83
2019-02-28T10:05:25.147Z,15.93
2019-02-28T10:07:53.400Z,16.07
2019-02-28T10:10:26.596Z,16.40
2019-02-28T10:12:56.871Z,16.23
2019-02-28T10:15:26.016Z,16.53
2019-02-28T10:17:54.291Z,16.97
2019-02-28T10:20:39.602Z,15.97
2019-02-28T10:23:07.866Z,17.37
2019-02-28T10:25:41.038Z,17.03
2019-02-28T10:28:07.958Z,15.57
2019-02-28T10:30:37.971Z,17.27
2019-02-28T10:33:06.303Z,17.60
2019-02-28T10:35:36.903Z,18.83
2019-02-28T10:38:04.626Z,19.93
2019-02-28T10:40:32.886Z,19.37
2019-02-28T10:43:01.193Z,20.77
2019-02-28T10:45:29.458Z,19.77
2019-02-28T10:48:02.971Z,19.80
2019-02-28T10:50:33.219Z,19.63
2019-02-28T10:53:04.044Z,20.43
2019-02-28T10:55:30.954Z,21.30
2019-02-28T10:57:59.220Z,20.67
2019-02-28T11:00:32.667Z,22.93
2019-02-28T11:03:01.933Z,21.80
2019-02-28T11:05:35.101Z,22.63
2019-02-28T11:08:03.867Z,20.47
2019-02-28T11:10:37.972Z,22.30
2019-02-28T11:13:08.674Z,21.47
2019-02-28T11:15:36.937Z,22.20
2019-02-28T11:18:09.752Z,21.33
2019-02-28T11:20:36.754Z,20.63
2019-02-28T11:23:05.107Z,21.17
2019-02-28T11:25:35.506Z,21.50
2019-02-28T11:28:03.342Z,20.87
2019-02-28T11:30:32.558Z,19.93
2019-02-28T11:33:04.505Z,20.33
2019-02-28T11:35:31.316Z,19.20
2019-02-28T11:37:59.589Z,20.50
2019-02-28T11:40:29.284Z,18.27
2019-02-28T11:42:59.362Z,18.80
2019-02-28T11:45:30.684Z,17.97
2019-02-28T11:48:00.804Z,18.80
2019-02-28T11:50:29.073Z,16.93
2019-02-28T11:53:03.107Z,17.93
2019-02-28T11:55:27.328Z,16.40
2019-02-28T11:58:01.453Z,18.07
2019-02-28T12:00:36.518Z,17.90
2019-02-28T12:03:05.705Z,20.03
2019-02-28T12:05:34.162Z,16.53
2019-02-28T12:08:02.422Z,15.67
2019-02-28T12:10:30.695Z,16.60
2019-02-28T12:12:58.962Z,15.57
2019-02-28T12:15:31.910Z,15.20
2019-02-28T12:18:03.635Z,14.63
2019-02-28T12:20:30.184Z,14.37
2019-02-28T12:22:58.436Z,14.77
2019-02-28T12:25:26.705Z,15.10
2019-02-28T12:27:55.323Z,15.40
2019-02-28T12:30:26.406Z,14.77
2019-02-28T12:32:54.683Z,14.63
2019-02-28T12:35:22.936Z,13.03
2019-02-28T12:37:53.968Z,12.63
2019-02-28T12:40:26.782Z,12.27
2019-02-28T12:42:55.094Z,12.93
2019-02-28T12:45:35.243Z,10.87
2019-02-28T12:48:03.499Z,9.27
2019-02-28T12:50:31.952Z,9.17
2019-02-28T12:53:01.848Z,8.53
2019-02-28T12:55:30.668Z,8.70
2019-02-28T12:57:59.192Z,9.67
2019-02-28T13:00:30.702Z,8.43
2019-02-28T13:03:02.785Z,10.60
2019-02-28T13:05:34.692Z,10.23
2019-02-28T13:08:05.826Z,9.27
2019-02-28T13:10:33.104Z,8.73
2019-02-28T13:13:06.306Z,9.33
2019-02-28T13:15:31.514Z,10.07
2019-02-28T13:17:59.911Z,9.97
2019-02-28T13:20:33.512Z,10.20
2019-02-28T13:23:01.117Z,10.70
2019-02-28T13:25:29.766Z,10.70
2019-02-28T13:27:58.170Z,11.97
2019-02-28T13:30:27.429Z,11.57
2019-02-28T13:32:56.377Z,12.17
2019-02-28T13:35:30.829Z,11.83
2019-02-28T13:37:59.221Z,12.50
2019-02-28T13:40:27.695Z,12.03
2019-02-28T13:42:56.253Z,12.07
2019-02-28T13:45:25.040Z,12.50
2019-02-28T13:47:53.623Z,12.80
2019-02-28T13:50:29.296Z,13.53
2019-02-28T13:53:02.500Z,12.50
2019-02-28T13:55:32.443Z,13.97
2019-02-28T13:58:05.530Z,14.00
2019-02-28T14:00:43.997Z,13.17
2019-02-28T14:03:12.828Z,13.27
2019-02-28T14:05:42.298Z,13.90
2019-02-28T14:08:16.537Z,12.60
2019-02-28T14:11:00.244Z,11.43
2019-02-28T14:13:42.857Z,11.87
2019-02-28T14:16:20.316Z,12.00
2019-02-28T14:18:56.524Z,12.37
2019-02-28T14:21:37.055Z,11.77
2019-02-28T14:24:07.989Z,11.83
2019-02-28T14:26:43.007Z,12.30
2019-02-28T14:29:11.742Z,12.43
2019-02-28T14:31:40.173Z,12.50
2019-02-28T14:34:08.530Z,11.70
2019-02-28T14:36:36.822Z,12.80
2019-02-28T14:39:08.432Z,13.83
2019-02-28T14:41:36.614Z,12.53
2019-02-28T14:44:04.962Z,12.23
2019-02-28T14:46:34.709Z,12.37
2019-02-28T14:49:03.187Z,12.97
2019-02-28T14:51:31.442Z,13.60
2019-02-28T14:53:59.729Z,11.80
2019-02-28T14:56:28.008Z,12.57
2019-02-28T14:58:57.521Z,10.80
2019-02-28T15:01:25.858Z,12.00
2019-02-28T15:03:54.225Z,11.77
2019-02-28T15:06:22.525Z,11.70
2019-02-28T15:08:51.929Z,12.27
2019-02-28T15:11:20.359Z,12.20
2019-02-28T15:13:48.628Z,11.43
2019-02-28T15:16:16.932Z,11.90
2019-02-28T15:18:47.468Z,11.33
2019-02-28T15:21:16.144Z,12.03
2019-02-28T15:23:44.445Z,11.57
2019-02-28T15:26:12.710Z,11.23
2019-02-28T15:28:40.992Z,12.03
2019-02-28T15:31:09.461Z,10.20
2019-02-28T15:33:37.656Z,11.30
2019-02-28T15:36:05.930Z,11.20
2019-02-28T15:38:34.295Z,10.77
2019-02-28T15:41:02.651Z,10.90
2019-02-28T15:43:30.974Z,10.47
2019-02-28T15:45:59.232Z,10.93
2019-02-28T15:48:27.565Z,11.03
2019-02-28T15:50:55.852Z,11.70
2019-02-28T15:53:24.172Z,12.33
2019-02-28T15:55:52.465Z,11.93
2019-02-28T15:58:20.726Z,11.13
2019-02-28T16:00:48.990Z,11.77
2019-02-28T16:03:17.500Z,11.83
2019-02-28T16:05:45.779Z,13.07
2019-02-28T16:08:14.047Z,12.23
2019-02-28T16:10:52.636Z,12.87
2019-02-28T16:13:12.302Z,13.13
2019-02-28T16:15:43.285Z,13.00
2019-02-28T16:18:11.959Z,12.23
2019-02-28T16:20:40.533Z,12.57
2019-02-28T16:23:08.825Z,13.50
2019-02-28T16:25:38.017Z,13.23
2019-02-28T16:28:08.786Z,14.43
2019-02-28T16:30:37.904Z,14.20
2019-02-28T16:33:06.160Z,14.17
2019-02-28T16:35:34.436Z,14.20
2019-02-28T16:38:02.698Z,14.23
2019-02-28T16:40:31.705Z,14.47
2019-02-28T16:42:59.963Z,13.70
2019-02-28T16:45:33.386Z,13.47
2019-02-28T16:48:03.357Z,13.73
2019-02-28T16:50:31.617Z,14.90
2019-02-28T16:52:59.916Z,14.27
2019-02-28T16:55:30.971Z,14.57
2019-02-28T16:57:58.208Z,14.07
2019-02-28T17:00:26.661Z,15.13
2019-02-28T17:02:54.916Z,15.40
2019-02-28T17:05:26.492Z,16.93
2019-02-28T17:07:53.162Z,17.57
2019-02-28T17:10:23.102Z,16.70
2019-02-28T17:13:04.737Z,16.53
2019-02-28T17:15:46.599Z,16.20
2019-02-28T17:18:21.480Z,20.57
2019-02-28T17:20:49.078Z,21.57
2019-02-28T17:23:18.642Z,21.13
2019-02-28T17:25:47.147Z,19.87
2019-02-28T17:28:17.099Z,16.33
2019-02-28T17:30:56.004Z,16.47
2019-02-28T17:33:24.344Z,18.50
2019-02-28T17:35:52.670Z,17.23
2019-02-28T17:38:20.931Z,17.57
2019-02-28T17:40:49.263Z,17.20
2019-02-28T17:43:17.555Z,18.23
2019-02-28T17:45:47.284Z,17.30
2019-02-28T17:48:52.707Z,19.07
2019-02-28T17:51:36.496Z,24.80
2019-02-28T17:54:13.805Z,20.90
2019-02-28T17:57:03.238Z,19.40
2019-02-28T17:59:42.021Z,17.67
2019-02-28T18:02:39.301Z,18.63
2019-02-28T18:05:30.327Z,16.47
2019-02-28T18:08:21.575Z,17.30
2019-02-28T18:11:12.563Z,18.00
2019-02-28T18:14:05.317Z,17.60
2019-02-28T18:16:48.734Z,17.10
2019-02-28T18:19:32.779Z,17.07
2019-02-28T18:22:15.767Z,17.50
2019-02-28T18:25:03.974Z,17.47
2019-02-28T18:27:50.748Z,17.57
2019-02-28T18:30:47.471Z,17.93
2019-02-28T18:33:15.728Z,18.43
2019-02-28T18:35:43.987Z,16.93
2019-02-28T18:38:12.249Z,17.30
2019-02-28T18:40:40.516Z,15.80
2019-02-28T18:43:08.776Z,17.07
2019-02-28T18:45:37.045Z,18.93
2019-02-28T18:48:05.320Z,17.80
2019-02-28T18:50:33.588Z,17.60
2019-02-28T18:53:06.969Z,17.43
2019-02-28T18:55:35.319Z,16.13
2019-02-28T18:58:03.559Z,15.37
2019-02-28T19:00:31.820Z,13.70
2019-02-28T19:03:00.085Z,13.07
2019-02-28T19:05:28.349Z,13.63
2019-02-28T19:07:56.610Z,14.30
2019-02-28T19:10:24.902Z,13.80
2019-02-28T19:12:53.159Z,14.53
2019-02-28T19:15:21.414Z,14.23
2019-02-28T19:17:49.678Z,13.93
2019-02-28T19:20:17.940Z,13.97
2019-02-28T19:22:46.219Z,14.13
2019-02-28T19:25:14.481Z,14.60
2019-02-28T19:27:42.781Z,14.50
2019-02-28T19:30:15.246Z,14.53
2019-02-28T19:32:43.551Z,14.40
2019-02-28T19:35:11.800Z,14.13
2019-02-28T19:37:40.076Z,15.00
2019-02-28T19:40:13.180Z,14.87
2019-02-28T19:42:41.456Z,15.43
2019-02-28T19:45:13.060Z,14.53
2019-02-28T19:47:41.427Z,14.93
2019-02-28T19:50:10.846Z,15.23
2019-02-28T19:52:39.171Z,15.53
2019-02-28T19:55:14.595Z,15.07
2019-02-28T19:57:42.943Z,15.23
2019-02-28T20:00:16.651Z,15.27
2019-02-28T20:02:44.954Z,16.07
2019-02-28T20:05:13.494Z,15.97
2019-02-28T20:07:41.789Z,15.70
2019-02-28T20:10:15.041Z,15.97
2019-02-28T20:12:43.404Z,15.47
2019-02-28T20:15:15.928Z,15.93
2019-02-28T20:17:44.258Z,16.33
2019-02-28T20:20:21.750Z,15.87
2019-02-28T20:22:50.034Z,16.47
2019-02-28T20:25:18.339Z,15.67
2019-02-28T20:27:46.646Z,15.93
2019-02-28T20:30:18.185Z,15.80
2019-02-28T20:32:46.469Z,14.77
2019-02-28T20:35:14.847Z,16.47
2019-02-28T20:37:43.202Z,17.07
2019-02-28T20:40:20.580Z,17.70
2019-02-28T20:42:48.884Z,17.90
2019-02-28T20:45:17.137Z,17.47
2019-02-28T20:47:45.445Z,17.40
2019-02-28T20:50:17.063Z,16.87
2019-02-28T20:52:45.394Z,17.63
2019-02-28T20:55:13.702Z,17.07
2019-02-28T20:57:41.997Z,17.73
2019-02-28T21:00:19.525Z,16.47
2019-02-28T21:02:55.397Z,18.00
2019-02-28T21:05:23.775Z,15.97
2019-02-28T21:07:52.063Z,16.50
2019-02-28T21:10:20.443Z,14.97
2019-02-28T21:12:48.724Z,14.73
2019-02-28T21:15:17.035Z,14.93
2019-02-28T21:17:45.342Z,13.90
2019-02-28T21:20:15.734Z,14.83
2019-02-28T21:22:44.037Z,14.67
2019-02-28T21:25:18.986Z,13.87
2019-02-28T21:27:47.302Z,13.03
2019-02-28T21:30:26.282Z,13.37
2019-02-28T21:32:54.604Z,13.83
2019-02-28T21:35:23.115Z,13.97
2019-02-28T21:37:51.471Z,13.13
2019-02-28T21:40:20.880Z,13.57
2019-02-28T21:42:49.270Z,13.30
2019-02-28T21:45:22.173Z,13.50
2019-02-28T21:47:50.460Z,13.70
2019-02-28T21:50:18.933Z,12.97
2019-02-28T21:52:47.211Z,13.03
2019-02-28T21:55:16.422Z,13.40
2019-02-28T21:57:44.806Z,13.07
2019-02-28T22:00:21.923Z,12.37
2019-02-28T22:02:50.260Z,11.80
2019-02-28T22:05:18.544Z,12.73
2019-02-28T22:07:46.877Z,12.37
2019-02-28T22:10:15.892Z,12.40
2019-02-28T22:12:44.179Z,13.00
2019-02-28T22:15:17.946Z,12.30
2019-02-28T22:17:46.229Z,12.80
2019-02-28T22:20:14.978Z,12.33
2019-02-28T22:22:43.270Z,11.07
2019-02-28T22:25:13.128Z,11.87
2019-02-28T22:27:41.413Z,11.30
2019-02-28T22:30:26.576Z,11.37
2019-02-28T22:32:56.513Z,11.37
2019-02-28T22:35:26.435Z,10.60
2019-02-28T22:37:54.745Z,10.77
2019-02-28T22:40:23.036Z,9.50
2019-02-28T22:42:51.347Z,9.30
2019-02-28T22:45:19.625Z,9.33
2019-02-28T22:47:47.898Z,9.77
2019-02-28T22:50:16.193Z,9.37
2019-02-28T22:52:44.556Z,9.00
2019-02-28T22:55:12.850Z,9.90
2019-02-28T22:57:41.172Z,9.57
2019-02-28T23:00:12.773Z,8.67
2019-02-28T23:02:41.141Z,8.70
2019-02-28T23:05:09.514Z,9.13
2019-02-28T23:07:37.812Z,8.77
2019-02-28T23:10:07.613Z,9.33
2019-02-28T23:12:35.910Z,9.00
2019-02-28T23:15:05.806Z,7.63
2019-02-28T23:17:34.101Z,7.40
2019-02-28T23:20:02.462Z,7.83
2019-02-28T23:22:30.736Z,8.07
2019-02-28T23:24:59.066Z,8.07
2019-02-28T23:27:27.395Z,7.93
2019-02-28T23:29:59.084Z,7.57
2019-02-28T23:32:39.326Z,7.73
2019-02-28T23:35:11.006Z,8.30
2019-02-28T23:37:39.342Z,8.53
2019-02-28T23:40:07.650Z,9.00
2019-02-28T23:42:35.953Z,8.93
2019-02-28T23:45:05.380Z,8.33
2019-02-28T23:47:33.653Z,8.20
2019-02-28T23:50:01.970Z,8.70
2019-02-28T23:52:30.283Z,9.00
2019-02-28T23:54:58.589Z,9.23
2019-02-28T23:57:26.870Z,9.23
2019-02-28T23:59:55.125Z,8.57
